sensor_id;sensor_type;location;lat;lon;timestamp;temperature;humidity
19200;DHT22;9732;52.498;5.408;2022-12-07T00:01:13;6.00;99.90
19200;DHT22;9732;52.498;5.408;2022-12-07T00:03:41;5.90;99.90
19200;DHT22;9732;52.498;5.408;2022-12-07T00:06:10;5.90;99.90
19200;DHT22;9732;52.498;5.408;2022-12-07T00:08:39;5.80;99.90
19200;DHT22;9732;52.498;5.408;2022-12-07T00:11:07;5.90;99.90
19200;DHT22;9732;52.498;5.408;2022-12-07T00:13:35;5.80;99.90
19200;DHT22;9732;52.498;5.408;2022-12-07T00:16:03;5.80;99.90
19200;DHT22;9732;52.498;5.408;2022-12-07T00:18:30;5.90;99.90
19200;DHT22;9732;52.498;5.408;2022-12-07T00:20:59;5.90;99.90
19200;DHT22;9732;52.498;5.408;2022-12-07T00:23:27;5.90;99.90
19200;DHT22;9732;52.498;5.408;2022-12-07T00:25:55;5.90;99.90
19200;DHT22;9732;52.498;5.408;2022-12-07T00:28:22;5.90;99.90
19200;DHT22;9732;52.498;5.408;2022-12-07T00:30:49;5.90;99.90
19200;DHT22;9732;52.498;5.408;2022-12-07T00:33:16;5.90;99.90
19200;DHT22;9732;52.498;5.408;2022-12-07T00:35:42;5.90;99.90
19200;DHT22;9732;52.498;5.408;2022-12-07T00:38:09;5.90;99.90
19200;DHT22;9732;52.498;5.408;2022-12-07T00:40:36;5.90;99.90
19200;DHT22;9732;52.498;5.408;2022-12-07T00:43:04;5.90;99.90
19200;DHT22;9732;52.498;5.408;2022-12-07T00:45:31;5.90;99.90
19200;DHT22;9732;52.498;5.408;2022-12-07T00:47:57;5.80;99.90
19200;DHT22;9732;52.498;5.408;2022-12-07T00:50:24;5.80;99.90
19200;DHT22;9732;52.498;5.408;2022-12-07T00:52:51;5.80;99.90
19200;DHT22;9732;52.498;5.408;2022-12-07T00:55:18;5.80;99.90
19200;DHT22;9732;52.498;5.408;2022-12-07T00:57:44;5.70;99.90
19200;DHT22;9732;52.498;5.408;2022-12-07T01:00:13;5.80;99.90
19200;DHT22;9732;52.498;5.408;2022-12-07T01:02:40;5.70;99.90
19200;DHT22;9732;52.498;5.408;2022-12-07T01:05:08;5.70;99.90
19200;DHT22;9732;52.498;5.408;2022-12-07T01:07:34;5.80;99.90
19200;DHT22;9732;52.498;5.408;2022-12-07T01:10:01;5.80;99.90
19200;DHT22;9732;52.498;5.408;2022-12-07T01:12:28;5.90;99.90
19200;DHT22;9732;52.498;5.408;2022-12-07T01:14:55;5.90;99.90
19200;DHT22;9732;52.498;5.408;2022-12-07T01:17:23;5.90;99.90
19200;DHT22;9732;52.498;5.408;2022-12-07T01:19:49;5.90;99.90
19200;DHT22;9732;52.498;5.408;2022-12-07T01:22:16;6.00;99.90
19200;DHT22;9732;52.498;5.408;2022-12-07T01:24:43;6.00;99.90
19200;DHT22;9732;52.498;5.408;2022-12-07T01:27:12;5.90;99.90
19200;DHT22;9732;52.498;5.408;2022-12-07T01:29:39;5.90;99.90
19200;DHT22;9732;52.498;5.408;2022-12-07T01:32:06;6.00;99.90
19200;DHT22;9732;52.498;5.408;2022-12-07T01:34:34;5.90;99.90
19200;DHT22;9732;52.498;5.408;2022-12-07T01:37:01;6.00;99.90
19200;DHT22;9732;52.498;5.408;2022-12-07T01:39:28;6.00;99.90
19200;DHT22;9732;52.498;5.408;2022-12-07T01:41:54;6.00;99.90
19200;DHT22;9732;52.498;5.408;2022-12-07T01:44:23;6.00;99.90
19200;DHT22;9732;52.498;5.408;2022-12-07T01:46:51;6.00;99.90
19200;DHT22;9732;52.498;5.408;2022-12-07T01:49:24;6.00;99.90
19200;DHT22;9732;52.498;5.408;2022-12-07T01:51:58;6.00;99.90
19200;DHT22;9732;52.498;5.408;2022-12-07T01:54:27;5.90;99.90
19200;DHT22;9732;52.498;5.408;2022-12-07T01:56:57;6.00;99.90
19200;DHT22;9732;52.498;5.408;2022-12-07T01:59:25;6.00;99.90
19200;DHT22;9732;52.498;5.408;2022-12-07T02:01:53;5.90;99.90
19200;DHT22;9732;52.498;5.408;2022-12-07T02:04:21;6.00;99.90
19200;DHT22;9732;52.498;5.408;2022-12-07T02:06:49;6.00;99.90
19200;DHT22;9732;52.498;5.408;2022-12-07T02:09:18;5.90;99.90
19200;DHT22;9732;52.498;5.408;2022-12-07T02:11:45;5.90;99.90
19200;DHT22;9732;52.498;5.408;2022-12-07T02:14:12;5.80;99.90
19200;DHT22;9732;52.498;5.408;2022-12-07T02:16:48;5.80;99.90
19200;DHT22;9732;52.498;5.408;2022-12-07T02:19:47;5.80;99.90
19200;DHT22;9732;52.498;5.408;2022-12-07T02:25:33;5.80;99.90
19200;DHT22;9732;52.498;5.408;2022-12-07T02:28:06;5.80;99.90
19200;DHT22;9732;52.498;5.408;2022-12-07T02:30:44;5.80;99.90
19200;DHT22;9732;52.498;5.408;2022-12-07T02:33:15;5.80;99.90
19200;DHT22;9732;52.498;5.408;2022-12-07T02:35:48;5.80;99.90
19200;DHT22;9732;52.498;5.408;2022-12-07T02:38:22;5.80;99.90
19200;DHT22;9732;52.498;5.408;2022-12-07T02:40:54;5.70;99.90
19200;DHT22;9732;52.498;5.408;2022-12-07T02:43:26;5.70;99.90
19200;DHT22;9732;52.498;5.408;2022-12-07T02:46:01;5.80;99.90
19200;DHT22;9732;52.498;5.408;2022-12-07T02:51:52;5.80;99.90
19200;DHT22;9732;52.498;5.408;2022-12-07T02:54:20;5.90;99.90
19200;DHT22;9732;52.498;5.408;2022-12-07T02:56:50;5.80;99.90
19200;DHT22;9732;52.498;5.408;2022-12-07T02:59:30;5.80;99.90
19200;DHT22;9732;52.498;5.408;2022-12-07T03:02:16;5.80;99.90
19200;DHT22;9732;52.498;5.408;2022-12-07T03:04:53;5.90;99.90
19200;DHT22;9732;52.498;5.408;2022-12-07T03:07:29;5.90;99.90
19200;DHT22;9732;52.498;5.408;2022-12-07T03:10:03;6.00;99.90
19200;DHT22;9732;52.498;5.408;2022-12-07T03:12:40;6.10;99.90
19200;DHT22;9732;52.498;5.408;2022-12-07T03:15:14;6.10;99.90
19200;DHT22;9732;52.498;5.408;2022-12-07T03:17:46;6.10;99.90
19200;DHT22;9732;52.498;5.408;2022-12-07T03:20:17;6.10;99.90
19200;DHT22;9732;52.498;5.408;2022-12-07T03:22:48;6.10;99.90
19200;DHT22;9732;52.498;5.408;2022-12-07T03:25:17;6.10;99.90
19200;DHT22;9732;52.498;5.408;2022-12-07T03:27:48;6.20;99.90
19200;DHT22;9732;52.498;5.408;2022-12-07T03:30:19;6.20;99.90
19200;DHT22;9732;52.498;5.408;2022-12-07T03:32:54;6.20;99.90
19200;DHT22;9732;52.498;5.408;2022-12-07T03:35:26;6.20;99.90
19200;DHT22;9732;52.498;5.408;2022-12-07T03:37:56;6.20;99.90
19200;DHT22;9732;52.498;5.408;2022-12-07T03:40:28;6.10;99.90
19200;DHT22;9732;52.498;5.408;2022-12-07T03:43:00;6.10;99.90
19200;DHT22;9732;52.498;5.408;2022-12-07T03:45:36;6.00;99.90
19200;DHT22;9732;52.498;5.408;2022-12-07T03:48:14;6.00;99.90
19200;DHT22;9732;52.498;5.408;2022-12-07T03:50:50;6.00;99.90
19200;DHT22;9732;52.498;5.408;2022-12-07T03:53:24;5.90;99.90
19200;DHT22;9732;52.498;5.408;2022-12-07T03:55:54;5.90;99.90
19200;DHT22;9732;52.498;5.408;2022-12-07T03:58:22;5.90;99.90
19200;DHT22;9732;52.498;5.408;2022-12-07T04:00:50;5.80;99.90
19200;DHT22;9732;52.498;5.408;2022-12-07T04:03:20;5.80;99.90
19200;DHT22;9732;52.498;5.408;2022-12-07T04:05:48;5.80;99.90
19200;DHT22;9732;52.498;5.408;2022-12-07T04:08:17;5.80;99.90
19200;DHT22;9732;52.498;5.408;2022-12-07T04:10:44;5.80;99.90
19200;DHT22;9732;52.498;5.408;2022-12-07T04:13:12;5.70;99.90
19200;DHT22;9732;52.498;5.408;2022-12-07T04:15:39;5.70;99.90
19200;DHT22;9732;52.498;5.408;2022-12-07T04:18:06;5.80;99.90
19200;DHT22;9732;52.498;5.408;2022-12-07T04:20:35;5.70;99.90
19200;DHT22;9732;52.498;5.408;2022-12-07T04:23:01;5.80;99.90
19200;DHT22;9732;52.498;5.408;2022-12-07T04:25:28;5.70;99.90
19200;DHT22;9732;52.498;5.408;2022-12-07T04:27:55;5.70;99.90
19200;DHT22;9732;52.498;5.408;2022-12-07T04:30:22;5.80;99.90
19200;DHT22;9732;52.498;5.408;2022-12-07T04:32:49;5.70;99.90
19200;DHT22;9732;52.498;5.408;2022-12-07T04:35:15;5.70;99.90
19200;DHT22;9732;52.498;5.408;2022-12-07T04:37:44;5.70;99.90
19200;DHT22;9732;52.498;5.408;2022-12-07T04:40:11;5.70;99.90
19200;DHT22;9732;52.498;5.408;2022-12-07T04:42:39;5.70;99.90
19200;DHT22;9732;52.498;5.408;2022-12-07T04:45:07;5.70;99.90
19200;DHT22;9732;52.498;5.408;2022-12-07T04:47:34;5.80;99.90
19200;DHT22;9732;52.498;5.408;2022-12-07T04:50:01;5.80;99.90
19200;DHT22;9732;52.498;5.408;2022-12-07T04:52:28;5.90;99.90
19200;DHT22;9732;52.498;5.408;2022-12-07T04:54:56;5.90;99.90
19200;DHT22;9732;52.498;5.408;2022-12-07T04:57:23;5.80;99.90
19200;DHT22;9732;52.498;5.408;2022-12-07T04:59:49;5.90;99.90
19200;DHT22;9732;52.498;5.408;2022-12-07T05:02:17;5.90;99.90
19200;DHT22;9732;52.498;5.408;2022-12-07T05:04:44;5.90;99.90
19200;DHT22;9732;52.498;5.408;2022-12-07T05:07:11;5.90;99.90
19200;DHT22;9732;52.498;5.408;2022-12-07T05:09:37;5.90;99.90
19200;DHT22;9732;52.498;5.408;2022-12-07T05:12:06;5.90;99.90
19200;DHT22;9732;52.498;5.408;2022-12-07T05:14:32;5.90;99.90
19200;DHT22;9732;52.498;5.408;2022-12-07T05:16:59;5.90;99.90
19200;DHT22;9732;52.498;5.408;2022-12-07T05:19:26;5.90;99.90
19200;DHT22;9732;52.498;5.408;2022-12-07T05:21:53;5.90;99.90
19200;DHT22;9732;52.498;5.408;2022-12-07T05:24:19;6.00;99.90
19200;DHT22;9732;52.498;5.408;2022-12-07T05:26:46;5.90;99.90
19200;DHT22;9732;52.498;5.408;2022-12-07T05:29:16;5.90;99.90
19200;DHT22;9732;52.498;5.408;2022-12-07T05:31:43;5.90;99.90
19200;DHT22;9732;52.498;5.408;2022-12-07T05:34:10;5.80;99.90
19200;DHT22;9732;52.498;5.408;2022-12-07T05:36:37;5.70;99.90
19200;DHT22;9732;52.498;5.408;2022-12-07T05:39:04;5.70;99.90
19200;DHT22;9732;52.498;5.408;2022-12-07T05:41:31;5.70;99.90
19200;DHT22;9732;52.498;5.408;2022-12-07T05:44:16;5.70;99.90
19200;DHT22;9732;52.498;5.408;2022-12-07T05:46:43;5.60;99.90
19200;DHT22;9732;52.498;5.408;2022-12-07T05:49:10;5.60;99.90
19200;DHT22;9732;52.498;5.408;2022-12-07T05:51:37;5.70;99.90
19200;DHT22;9732;52.498;5.408;2022-12-07T05:54:03;5.60;99.90
19200;DHT22;9732;52.498;5.408;2022-12-07T05:56:30;5.60;99.90
19200;DHT22;9732;52.498;5.408;2022-12-07T05:58:59;5.70;99.90
19200;DHT22;9732;52.498;5.408;2022-12-07T06:01:45;5.70;99.90
19200;DHT22;9732;52.498;5.408;2022-12-07T06:04:12;5.70;99.90
19200;DHT22;9732;52.498;5.408;2022-12-07T06:06:39;5.70;99.90
19200;DHT22;9732;52.498;5.408;2022-12-07T06:09:05;5.70;99.90
19200;DHT22;9732;52.498;5.408;2022-12-07T06:11:32;5.70;99.90
19200;DHT22;9732;52.498;5.408;2022-12-07T06:14:17;5.70;99.90
19200;DHT22;9732;52.498;5.408;2022-12-07T06:16:45;5.80;99.90
19200;DHT22;9732;52.498;5.408;2022-12-07T06:19:12;5.70;99.90
19200;DHT22;9732;52.498;5.408;2022-12-07T06:21:39;5.70;99.90
19200;DHT22;9732;52.498;5.408;2022-12-07T06:24:06;5.70;99.90
19200;DHT22;9732;52.498;5.408;2022-12-07T06:26:33;5.60;99.90
19200;DHT22;9732;52.498;5.408;2022-12-07T06:29:00;5.60;99.90
19200;DHT22;9732;52.498;5.408;2022-12-07T06:31:26;5.60;99.90
19200;DHT22;9732;52.498;5.408;2022-12-07T06:33:58;5.60;99.90
19200;DHT22;9732;52.498;5.408;2022-12-07T06:36:25;5.60;99.90
19200;DHT22;9732;52.498;5.408;2022-12-07T06:38:52;5.60;99.90
19200;DHT22;9732;52.498;5.408;2022-12-07T06:41:19;5.60;99.90
19200;DHT22;9732;52.498;5.408;2022-12-07T06:43:46;5.70;99.90
19200;DHT22;9732;52.498;5.408;2022-12-07T06:46:12;5.70;99.90
19200;DHT22;9732;52.498;5.408;2022-12-07T06:48:39;5.70;99.90
19200;DHT22;9732;52.498;5.408;2022-12-07T06:51:08;5.70;99.90
19200;DHT22;9732;52.498;5.408;2022-12-07T06:53:35;5.70;99.90
19200;DHT22;9732;52.498;5.408;2022-12-07T06:56:02;5.70;99.90
19200;DHT22;9732;52.498;5.408;2022-12-07T06:58:29;5.70;99.90
19200;DHT22;9732;52.498;5.408;2022-12-07T07:00:56;5.70;99.90
19200;DHT22;9732;52.498;5.408;2022-12-07T07:03:23;5.70;99.90
19200;DHT22;9732;52.498;5.408;2022-12-07T07:05:50;5.70;99.90
19200;DHT22;9732;52.498;5.408;2022-12-07T07:08:18;5.70;99.90
19200;DHT22;9732;52.498;5.408;2022-12-07T07:10:45;5.80;99.90
19200;DHT22;9732;52.498;5.408;2022-12-07T07:13:12;5.70;99.90
19200;DHT22;9732;52.498;5.408;2022-12-07T07:15:39;5.70;99.90
19200;DHT22;9732;52.498;5.408;2022-12-07T07:18:06;5.60;99.90
19200;DHT22;9732;52.498;5.408;2022-12-07T07:20:33;5.70;99.90
19200;DHT22;9732;52.498;5.408;2022-12-07T07:23:00;5.70;99.90
19200;DHT22;9732;52.498;5.408;2022-12-07T07:25:28;5.70;99.90
19200;DHT22;9732;52.498;5.408;2022-12-07T07:27:55;5.70;99.90
19200;DHT22;9732;52.498;5.408;2022-12-07T07:30:23;5.70;99.90
19200;DHT22;9732;52.498;5.408;2022-12-07T07:32:50;5.70;99.90
19200;DHT22;9732;52.498;5.408;2022-12-07T07:35:16;5.60;99.90
19200;DHT22;9732;52.498;5.408;2022-12-07T07:37:43;5.60;99.90
19200;DHT22;9732;52.498;5.408;2022-12-07T07:40:10;5.70;99.90
19200;DHT22;9732;52.498;5.408;2022-12-07T07:42:39;5.60;99.90
19200;DHT22;9732;52.498;5.408;2022-12-07T07:45:06;5.70;99.90
19200;DHT22;9732;52.498;5.408;2022-12-07T07:47:33;5.70;99.90
19200;DHT22;9732;52.498;5.408;2022-12-07T07:50:00;5.70;99.90
19200;DHT22;9732;52.498;5.408;2022-12-07T07:52:27;5.70;99.90
19200;DHT22;9732;52.498;5.408;2022-12-07T07:54:53;5.70;99.90
19200;DHT22;9732;52.498;5.408;2022-12-07T07:57:20;5.70;99.90
19200;DHT22;9732;52.498;5.408;2022-12-07T07:59:48;5.80;99.90
19200;DHT22;9732;52.498;5.408;2022-12-07T08:02:17;5.80;99.90
19200;DHT22;9732;52.498;5.408;2022-12-07T08:04:44;5.70;99.90
19200;DHT22;9732;52.498;5.408;2022-12-07T08:07:12;5.70;99.90
19200;DHT22;9732;52.498;5.408;2022-12-07T08:09:39;5.60;99.90
19200;DHT22;9732;52.498;5.408;2022-12-07T08:12:06;5.60;99.90
19200;DHT22;9732;52.498;5.408;2022-12-07T08:14:34;5.50;99.90
19200;DHT22;9732;52.498;5.408;2022-12-07T08:17:02;5.50;99.90
19200;DHT22;9732;52.498;5.408;2022-12-07T08:19:29;5.50;99.90
19200;DHT22;9732;52.498;5.408;2022-12-07T08:21:55;5.50;99.90
19200;DHT22;9732;52.498;5.408;2022-12-07T08:24:22;5.50;99.90
19200;DHT22;9732;52.498;5.408;2022-12-07T08:26:50;5.50;99.90
19200;DHT22;9732;52.498;5.408;2022-12-07T08:29:17;5.50;99.90
19200;DHT22;9732;52.498;5.408;2022-12-07T08:31:44;5.50;99.90
19200;DHT22;9732;52.498;5.408;2022-12-07T08:34:13;5.60;99.90
19200;DHT22;9732;52.498;5.408;2022-12-07T08:36:40;5.70;99.90
19200;DHT22;9732;52.498;5.408;2022-12-07T08:39:08;5.70;99.90
19200;DHT22;9732;52.498;5.408;2022-12-07T08:41:35;5.80;99.90
19200;DHT22;9732;52.498;5.408;2022-12-07T08:44:02;5.80;99.90
19200;DHT22;9732;52.498;5.408;2022-12-07T08:46:32;5.90;99.90
19200;DHT22;9732;52.498;5.408;2022-12-07T08:49:05;5.90;99.90
19200;DHT22;9732;52.498;5.408;2022-12-07T08:51:34;5.90;99.90
19200;DHT22;9732;52.498;5.408;2022-12-07T08:54:04;5.80;99.90
19200;DHT22;9732;52.498;5.408;2022-12-07T08:56:32;5.80;99.90
19200;DHT22;9732;52.498;5.408;2022-12-07T08:58:59;5.80;99.90
19200;DHT22;9732;52.498;5.408;2022-12-07T09:01:26;5.80;99.90
19200;DHT22;9732;52.498;5.408;2022-12-07T09:03:53;5.80;99.90
19200;DHT22;9732;52.498;5.408;2022-12-07T09:06:20;5.90;99.90
19200;DHT22;9732;52.498;5.408;2022-12-07T09:08:51;5.90;99.90
19200;DHT22;9732;52.498;5.408;2022-12-07T09:11:19;6.00;99.90
19200;DHT22;9732;52.498;5.408;2022-12-07T09:13:45;6.00;99.90
19200;DHT22;9732;52.498;5.408;2022-12-07T09:16:12;6.10;99.90
19200;DHT22;9732;52.498;5.408;2022-12-07T09:18:39;6.10;99.90
19200;DHT22;9732;52.498;5.408;2022-12-07T09:21:07;6.00;99.90
19200;DHT22;9732;52.498;5.408;2022-12-07T09:23:34;6.10;99.90
19200;DHT22;9732;52.498;5.408;2022-12-07T09:26:03;6.20;99.90
19200;DHT22;9732;52.498;5.408;2022-12-07T09:28:31;6.20;99.90
19200;DHT22;9732;52.498;5.408;2022-12-07T09:30:57;6.30;99.90
19200;DHT22;9732;52.498;5.408;2022-12-07T09:33:24;6.20;99.90
19200;DHT22;9732;52.498;5.408;2022-12-07T09:35:52;6.20;99.90
19200;DHT22;9732;52.498;5.408;2022-12-07T09:38:19;6.20;99.90
19200;DHT22;9732;52.498;5.408;2022-12-07T09:40:47;6.20;99.90
19200;DHT22;9732;52.498;5.408;2022-12-07T09:43:17;6.20;99.90
19200;DHT22;9732;52.498;5.408;2022-12-07T09:45:46;6.20;99.90
19200;DHT22;9732;52.498;5.408;2022-12-07T09:48:17;6.20;99.90
19200;DHT22;9732;52.498;5.408;2022-12-07T09:50:46;6.30;99.90
19200;DHT22;9732;52.498;5.408;2022-12-07T09:53:24;6.20;99.90
19200;DHT22;9732;52.498;5.408;2022-12-07T09:55:52;6.20;99.90
19200;DHT22;9732;52.498;5.408;2022-12-07T09:58:23;6.20;99.90
19200;DHT22;9732;52.498;5.408;2022-12-07T10:00:54;6.20;99.90
19200;DHT22;9732;52.498;5.408;2022-12-07T10:03:22;6.20;99.90
19200;DHT22;9732;52.498;5.408;2022-12-07T10:05:50;6.20;99.90
19200;DHT22;9732;52.498;5.408;2022-12-07T10:08:18;6.20;99.90
19200;DHT22;9732;52.498;5.408;2022-12-07T10:10:47;6.20;99.90
19200;DHT22;9732;52.498;5.408;2022-12-07T10:13:19;6.10;99.90
19200;DHT22;9732;52.498;5.408;2022-12-07T10:15:50;6.10;99.90
19200;DHT22;9732;52.498;5.408;2022-12-07T10:18:26;6.20;99.90
19200;DHT22;9732;52.498;5.408;2022-12-07T10:21:05;6.30;99.90
19200;DHT22;9732;52.498;5.408;2022-12-07T10:23:37;6.40;99.90
19200;DHT22;9732;52.498;5.408;2022-12-07T10:26:26;6.50;99.90
19200;DHT22;9732;52.498;5.408;2022-12-07T10:28:54;6.60;99.90
19200;DHT22;9732;52.498;5.408;2022-12-07T10:31:23;6.60;99.90
19200;DHT22;9732;52.498;5.408;2022-12-07T10:33:52;6.60;99.90
19200;DHT22;9732;52.498;5.408;2022-12-07T10:36:22;6.60;99.90
19200;DHT22;9732;52.498;5.408;2022-12-07T10:38:52;6.60;99.90
19200;DHT22;9732;52.498;5.408;2022-12-07T10:41:19;6.60;99.90
19200;DHT22;9732;52.498;5.408;2022-12-07T10:43:49;6.60;99.90
19200;DHT22;9732;52.498;5.408;2022-12-07T10:46:47;6.60;99.90
19200;DHT22;9732;52.498;5.408;2022-12-07T10:52:39;6.50;99.90
19200;DHT22;9732;52.498;5.408;2022-12-07T10:55:16;6.40;99.90
19200;DHT22;9732;52.498;5.408;2022-12-07T10:58:04;6.40;99.90
19200;DHT22;9732;52.498;5.408;2022-12-07T11:00:37;6.30;99.90
19200;DHT22;9732;52.498;5.408;2022-12-07T11:03:25;6.30;99.90
19200;DHT22;9732;52.498;5.408;2022-12-07T11:06:04;6.30;99.90
19200;DHT22;9732;52.498;5.408;2022-12-07T11:08:54;6.20;99.90
19200;DHT22;9732;52.498;5.408;2022-12-07T11:11:32;6.40;99.90
19200;DHT22;9732;52.498;5.408;2022-12-07T11:14:05;6.50;99.90
19200;DHT22;9732;52.498;5.408;2022-12-07T11:16:48;6.60;99.90
19200;DHT22;9732;52.498;5.408;2022-12-07T11:19:28;6.60;99.90
19200;DHT22;9732;52.498;5.408;2022-12-07T11:22:01;6.60;99.90
19200;DHT22;9732;52.498;5.408;2022-12-07T11:24:35;6.60;99.90
19200;DHT22;9732;52.498;5.408;2022-12-07T11:27:15;6.60;99.90
19200;DHT22;9732;52.498;5.408;2022-12-07T11:29:57;6.60;99.90
19200;DHT22;9732;52.498;5.408;2022-12-07T11:35:32;6.60;99.90
19200;DHT22;9732;52.498;5.408;2022-12-07T11:38:09;6.60;99.90
19200;DHT22;9732;52.498;5.408;2022-12-07T11:40:37;6.60;99.90
19200;DHT22;9732;52.498;5.408;2022-12-07T11:43:11;6.60;99.90
19200;DHT22;9732;52.498;5.408;2022-12-07T11:45:42;6.70;99.90
19200;DHT22;9732;52.498;5.408;2022-12-07T11:48:14;6.70;99.90
19200;DHT22;9732;52.498;5.408;2022-12-07T11:50:46;6.70;99.90
19200;DHT22;9732;52.498;5.408;2022-12-07T11:53:17;6.70;99.90
19200;DHT22;9732;52.498;5.408;2022-12-07T11:55:49;6.80;99.90
19200;DHT22;9732;52.498;5.408;2022-12-07T11:58:35;6.80;99.90
19200;DHT22;9732;52.498;5.408;2022-12-07T12:01:14;6.90;99.90
19200;DHT22;9732;52.498;5.408;2022-12-07T12:03:46;6.90;99.90
19200;DHT22;9732;52.498;5.408;2022-12-07T12:06:16;6.90;99.90
19200;DHT22;9732;52.498;5.408;2022-12-07T12:08:48;6.90;99.90
19200;DHT22;9732;52.498;5.408;2022-12-07T12:11:28;6.90;99.90
19200;DHT22;9732;52.498;5.408;2022-12-07T12:14:23;7.00;99.90
19200;DHT22;9732;52.498;5.408;2022-12-07T12:17:28;7.00;99.90
19200;DHT22;9732;52.498;5.408;2022-12-07T12:20:01;6.90;99.90
19200;DHT22;9732;52.498;5.408;2022-12-07T12:22:36;6.90;99.90
19200;DHT22;9732;52.498;5.408;2022-12-07T12:25:06;6.90;99.90
19200;DHT22;9732;52.498;5.408;2022-12-07T12:27:37;6.90;99.90
19200;DHT22;9732;52.498;5.408;2022-12-07T12:30:30;6.80;99.90
19200;DHT22;9732;52.498;5.408;2022-12-07T12:33:04;6.90;99.90
19200;DHT22;9732;52.498;5.408;2022-12-07T12:35:33;6.90;99.90
19200;DHT22;9732;52.498;5.408;2022-12-07T12:38:27;7.00;99.90
19200;DHT22;9732;52.498;5.408;2022-12-07T12:40:56;7.00;99.90
19200;DHT22;9732;52.498;5.408;2022-12-07T12:43:49;6.90;99.90
19200;DHT22;9732;52.498;5.408;2022-12-07T12:46:52;7.00;99.90
19200;DHT22;9732;52.498;5.408;2022-12-07T12:49:34;7.20;99.90
19200;DHT22;9732;52.498;5.408;2022-12-07T12:55:15;7.30;99.90
19200;DHT22;9732;52.498;5.408;2022-12-07T12:57:46;7.30;99.90
19200;DHT22;9732;52.498;5.408;2022-12-07T13:00:19;7.20;99.90
19200;DHT22;9732;52.498;5.408;2022-12-07T13:02:50;7.10;99.90
19200;DHT22;9732;52.498;5.408;2022-12-07T13:05:22;7.00;99.90
19200;DHT22;9732;52.498;5.408;2022-12-07T13:07:59;6.80;99.90
19200;DHT22;9732;52.498;5.408;2022-12-07T13:10:35;6.70;99.90
19200;DHT22;9732;52.498;5.408;2022-12-07T13:13:32;6.50;99.90
19200;DHT22;9732;52.498;5.408;2022-12-07T13:16:38;6.40;99.90
19200;DHT22;9732;52.498;5.408;2022-12-07T13:22:51;6.40;99.90
19200;DHT22;9732;52.498;5.408;2022-12-07T13:25:41;6.50;99.90
19200;DHT22;9732;52.498;5.408;2022-12-07T13:28:15;6.50;99.90
19200;DHT22;9732;52.498;5.408;2022-12-07T13:30:53;6.50;99.90
19200;DHT22;9732;52.498;5.408;2022-12-07T13:33:24;6.50;99.90
19200;DHT22;9732;52.498;5.408;2022-12-07T13:35:54;6.60;99.90
19200;DHT22;9732;52.498;5.408;2022-12-07T13:38:28;6.70;99.90
19200;DHT22;9732;52.498;5.408;2022-12-07T13:41:13;6.70;99.90
19200;DHT22;9732;52.498;5.408;2022-12-07T13:43:46;6.70;99.90
19200;DHT22;9732;52.498;5.408;2022-12-07T13:46:14;6.70;99.90
19200;DHT22;9732;52.498;5.408;2022-12-07T13:48:45;6.60;99.90
19200;DHT22;9732;52.498;5.408;2022-12-07T13:51:19;6.70;99.90
19200;DHT22;9732;52.498;5.408;2022-12-07T13:53:48;6.70;99.90
19200;DHT22;9732;52.498;5.408;2022-12-07T13:56:17;6.60;99.90
19200;DHT22;9732;52.498;5.408;2022-12-07T13:58:44;6.70;99.90
19200;DHT22;9732;52.498;5.408;2022-12-07T14:01:12;6.70;99.90
19200;DHT22;9732;52.498;5.408;2022-12-07T14:03:39;6.70;99.90
19200;DHT22;9732;52.498;5.408;2022-12-07T14:06:25;6.70;99.90
19200;DHT22;9732;52.498;5.408;2022-12-07T14:09:08;6.60;99.90
19200;DHT22;9732;52.498;5.408;2022-12-07T14:11:47;6.60;99.90
19200;DHT22;9732;52.498;5.408;2022-12-07T14:14:18;6.60;99.90
19200;DHT22;9732;52.498;5.408;2022-12-07T14:16:59;6.60;99.90
19200;DHT22;9732;52.498;5.408;2022-12-07T14:19:45;6.50;99.90
19200;DHT22;9732;52.498;5.408;2022-12-07T14:22:25;6.50;99.90
19200;DHT22;9732;52.498;5.408;2022-12-07T14:27:59;6.40;99.90
19200;DHT22;9732;52.498;5.408;2022-12-07T14:30:28;6.30;99.90
19200;DHT22;9732;52.498;5.408;2022-12-07T14:32:58;6.30;99.90
19200;DHT22;9732;52.498;5.408;2022-12-07T14:35:27;6.20;99.90
19200;DHT22;9732;52.498;5.408;2022-12-07T14:37:55;6.00;99.90
19200;DHT22;9732;52.498;5.408;2022-12-07T14:40:24;6.00;99.90
19200;DHT22;9732;52.498;5.408;2022-12-07T14:42:55;6.00;99.90
19200;DHT22;9732;52.498;5.408;2022-12-07T14:45:25;6.00;99.90
19200;DHT22;9732;52.498;5.408;2022-12-07T14:47:53;6.00;99.90
19200;DHT22;9732;52.498;5.408;2022-12-07T14:50:21;6.00;99.90
19200;DHT22;9732;52.498;5.408;2022-12-07T14:52:54;6.10;99.90
19200;DHT22;9732;52.498;5.408;2022-12-07T14:55:24;6.10;99.90
19200;DHT22;9732;52.498;5.408;2022-12-07T14:57:52;6.20;99.90
19200;DHT22;9732;52.498;5.408;2022-12-07T15:00:23;6.20;99.90
19200;DHT22;9732;52.498;5.408;2022-12-07T15:02:52;6.20;99.90
19200;DHT22;9732;52.498;5.408;2022-12-07T15:05:24;6.20;99.90
19200;DHT22;9732;52.498;5.408;2022-12-07T15:07:52;6.20;99.90
19200;DHT22;9732;52.498;5.408;2022-12-07T15:10:22;6.20;99.90
19200;DHT22;9732;52.498;5.408;2022-12-07T15:12:52;6.20;99.90
19200;DHT22;9732;52.498;5.408;2022-12-07T15:15:20;6.10;99.90
19200;DHT22;9732;52.498;5.408;2022-12-07T15:17:47;6.20;99.90
19200;DHT22;9732;52.498;5.408;2022-12-07T15:20:15;6.20;99.90
19200;DHT22;9732;52.498;5.408;2022-12-07T15:22:44;6.20;99.90
19200;DHT22;9732;52.498;5.408;2022-12-07T15:25:13;6.20;99.90
19200;DHT22;9732;52.498;5.408;2022-12-07T15:27:43;6.20;99.90
19200;DHT22;9732;52.498;5.408;2022-12-07T15:30:11;6.00;99.90
19200;DHT22;9732;52.498;5.408;2022-12-07T15:32:39;5.90;99.90
19200;DHT22;9732;52.498;5.408;2022-12-07T15:35:09;5.90;99.90
19200;DHT22;9732;52.498;5.408;2022-12-07T15:37:39;5.90;99.90
19200;DHT22;9732;52.498;5.408;2022-12-07T15:40:07;5.80;99.90
19200;DHT22;9732;52.498;5.408;2022-12-07T15:42:35;5.90;99.90
19200;DHT22;9732;52.498;5.408;2022-12-07T15:45:03;5.90;99.90
19200;DHT22;9732;52.498;5.408;2022-12-07T15:47:29;5.90;99.90
19200;DHT22;9732;52.498;5.408;2022-12-07T15:49:56;5.80;99.90
19200;DHT22;9732;52.498;5.408;2022-12-07T15:52:23;5.90;99.90
19200;DHT22;9732;52.498;5.408;2022-12-07T15:54:51;5.90;99.90
19200;DHT22;9732;52.498;5.408;2022-12-07T15:57:18;5.90;99.90
19200;DHT22;9732;52.498;5.408;2022-12-07T15:59:45;5.90;99.90
19200;DHT22;9732;52.498;5.408;2022-12-07T16:02:12;5.90;99.90
19200;DHT22;9732;52.498;5.408;2022-12-07T16:04:38;5.90;99.90
19200;DHT22;9732;52.498;5.408;2022-12-07T16:07:05;5.90;99.90
19200;DHT22;9732;52.498;5.408;2022-12-07T16:09:32;6.00;99.90
19200;DHT22;9732;52.498;5.408;2022-12-07T16:12:00;5.90;99.90
19200;DHT22;9732;52.498;5.408;2022-12-07T16:14:27;5.90;99.90
19200;DHT22;9732;52.498;5.408;2022-12-07T16:16:54;6.00;99.90
19200;DHT22;9732;52.498;5.408;2022-12-07T16:19:21;6.00;99.90
19200;DHT22;9732;52.498;5.408;2022-12-07T16:21:47;6.00;99.90
19200;DHT22;9732;52.498;5.408;2022-12-07T16:24:14;6.00;99.90
19200;DHT22;9732;52.498;5.408;2022-12-07T16:26:42;6.00;99.90
19200;DHT22;9732;52.498;5.408;2022-12-07T16:29:11;6.00;99.90
19200;DHT22;9732;52.498;5.408;2022-12-07T16:31:38;6.00;99.90
19200;DHT22;9732;52.498;5.408;2022-12-07T16:34:05;5.90;99.90
19200;DHT22;9732;52.498;5.408;2022-12-07T16:36:33;5.80;99.90
19200;DHT22;9732;52.498;5.408;2022-12-07T16:39:00;5.80;99.90
19200;DHT22;9732;52.498;5.408;2022-12-07T16:41:27;5.70;99.90
19200;DHT22;9732;52.498;5.408;2022-12-07T16:43:54;5.70;99.90
19200;DHT22;9732;52.498;5.408;2022-12-07T16:46:23;5.60;99.90